Time;durP1;ratioP1;P1;durP2;ratioP2;P2;SDS_P1;SDS_P2;PMS_P1;PMS_P2;Temp;Humidity;BMP_temperature;BMP_pressure;BME280_temperature;BME280_humidity;BME280_pressure;Samples;Min_cycle;Max_cycle;Signal;HPM_P1;HPM_P2
2022/03/25 00:00:21;;;;;;;29.85;19.80;;;8.80;58.20;;;;;;5036391;28;20455;-82
2022/03/25 00:02:47;;;;;;;35.65;21.42;;;8.70;58.30;;;;;;5034604;28;20136;-82
2022/03/25 00:05:15;;;;;;;30.55;20.00;;;8.70;58.40;;;;;;5033866;28;20056;-81
2022/03/25 00:07:42;;;;;;;29.13;20.23;;;8.70;58.50;;;;;;5034702;28;20062;-81
2022/03/25 00:10:09;;;;;;;29.65;21.05;;;8.60;58.60;;;;;;5033448;28;20037;-81
2022/03/25 00:12:37;;;;;;;34.38;21.52;;;8.60;58.70;;;;;;5032111;28;20053;-81
2022/03/25 00:15:04;;;;;;;31.45;20.58;;;8.60;58.80;;;;;;5037117;28;20502;-81
2022/03/25 00:17:31;;;;;;;34.25;21.30;;;8.50;58.90;;;;;;5035011;28;20099;-81
2022/03/25 00:19:58;;;;;;;28.67;20.30;;;8.50;59.00;;;;;;5033828;28;20052;-81
2022/03/25 00:22:25;;;;;;;28.60;21.20;;;8.40;59.10;;;;;;5034570;28;20053;-81
2022/03/25 00:24:52;;;;;;;30.75;19.75;;;8.40;59.10;;;;;;5031092;28;20498;-81
2022/03/25 00:27:19;;;;;;;29.13;20.27;;;8.40;59.20;;;;;;5036126;28;20084;-81
2022/03/25 00:29:46;;;;;;;31.90;20.92;;;8.40;59.30;;;;;;5034068;28;20418;-81
2022/03/25 00:32:13;;;;;;;28.38;20.70;;;8.30;59.40;;;;;;5034646;28;20470;-81
2022/03/25 00:34:40;;;;;;;28.25;20.42;;;8.30;59.50;;;;;;5034935;28;20052;-81
2022/03/25 00:37:07;;;;;;;29.70;20.65;;;8.30;59.50;;;;;;5032605;28;20041;-81
2022/03/25 00:39:34;;;;;;;29.00;20.85;;;8.30;59.60;;;;;;5032324;28;20107;-81
2022/03/25 00:42:01;;;;;;;30.67;21.48;;;8.20;59.70;;;;;;5036777;28;20049;-81
2022/03/25 00:44:27;;;;;;;32.35;20.42;;;8.20;59.70;;;;;;5032209;28;20053;-81
2022/03/25 00:46:54;;;;;;;32.83;22.20;;;8.10;59.80;;;;;;5034490;28;20041;-81
2022/03/25 00:49:22;;;;;;;30.77;21.63;;;8.10;59.90;;;;;;5034729;28;20045;-81
2022/03/25 00:51:48;;;;;;;31.40;22.02;;;8.10;59.90;;;;;;5030053;28;20053;-81
2022/03/25 00:54:16;;;;;;;37.67;22.75;;;8.10;60.00;;;;;;5043777;28;20055;-81
2022/03/25 00:56:43;;;;;;;36.03;23.73;;;8.10;60.00;;;;;;5034817;28;20049;-81
2022/03/25 00:59:10;;;;;;;36.42;22.05;;;8.00;60.10;;;;;;5034575;28;20761;-81
2022/03/25 01:01:38;;;;;;;36.75;22.30;;;8.00;60.10;;;;;;5034524;28;20052;-81
2022/03/25 01:04:05;;;;;;;32.88;21.83;;;8.00;60.20;;;;;;5032407;28;20099;-81
2022/03/25 01:06:32;;;;;;;31.33;21.85;;;7.90;60.30;;;;;;5033333;28;20057;-81
2022/03/25 01:08:59;;;;;;;33.45;21.85;;;8.00;60.30;;;;;;5038471;28;20049;-81
2022/03/25 01:11:27;;;;;;;33.47;21.92;;;7.90;60.40;;;;;;5037221;28;20552;-81
2022/03/25 01:13:54;;;;;;;28.75;21.65;;;7.90;60.50;;;;;;5038390;28;20060;-81
2022/03/25 01:16:21;;;;;;;30.55;22.70;;;7.90;60.60;;;;;;5037382;28;20106;-81
2022/03/25 01:18:48;;;;;;;35.45;22.40;;;7.90;60.60;;;;;;5034227;28;20046;-81
2022/03/25 01:21:17;;;;;;;32.33;22.05;;;7.80;60.70;;;;;;5046938;28;20417;-81
2022/03/25 01:23:45;;;;;;;35.63;23.05;;;7.80;60.80;;;;;;5035736;28;20061;-81
2022/03/25 01:26:12;;;;;;;31.65;22.10;;;7.80;60.80;;;;;;5038066;28;20053;-81
2022/03/25 01:28:39;;;;;;;32.58;23.50;;;7.70;60.90;;;;;;5038343;28;20420;-81
2022/03/25 01:31:09;;;;;;;35.90;23.77;;;7.70;61.10;;;;;;5035941;28;20128;-81
2022/03/25 01:33:39;;;;;;;34.20;24.73;;;7.70;61.20;;;;;;5035280;28;20056;-81
2022/03/25 01:36:06;;;;;;;34.42;24.30;;;7.70;61.20;;;;;;5039641;28;20049;-81
2022/03/25 01:38:33;;;;;;;33.03;24.15;;;7.60;61.30;;;;;;5036773;28;20041;-81
2022/03/25 01:41:00;;;;;;;32.95;21.95;;;7.60;61.40;;;;;;5037789;28;20421;-81
2022/03/25 01:43:27;;;;;;;38.00;24.02;;;7.50;61.40;;;;;;5038034;28;20045;-81
2022/03/25 01:45:55;;;;;;;33.85;24.50;;;7.50;61.50;;;;;;5034348;28;20052;-82
2022/03/25 01:48:22;;;;;;;37.90;23.65;;;7.50;61.60;;;;;;5038002;28;20509;-80
2022/03/25 01:50:49;;;;;;;32.60;22.95;;;7.50;61.60;;;;;;5038142;28;20398;-82
2022/03/25 01:53:25;;;;;;;35.97;23.83;;;7.50;61.70;;;;;;5037750;28;20049;-81
2022/03/25 01:55:57;;;;;;;34.72;22.70;;;7.50;61.80;;;;;;5037617;28;20037;-81
2022/03/25 01:58:26;;;;;;;36.25;23.27;;;7.40;61.80;;;;;;5037634;28;20045;-81
2022/03/25 02:00:53;;;;;;;34.35;23.35;;;7.40;61.90;;;;;;5034145;28;20060;-81
2022/03/25 02:03:21;;;;;;;32.53;22.83;;;7.40;61.90;;;;;;5037517;28;20042;-81
2022/03/25 02:05:49;;;;;;;35.03;24.13;;;7.40;62.00;;;;;;5038107;28;20111;-80
2022/03/25 02:08:16;;;;;;;36.10;23.58;;;7.30;62.00;;;;;;5037529;28;20083;-81
2022/03/25 02:10:44;;;;;;;34.72;24.23;;;7.30;62.10;;;;;;5037347;28;20099;-81
2022/03/25 02:13:11;;;;;;;39.53;24.23;;;7.30;62.10;;;;;;5036180;28;20052;-80
2022/03/25 02:15:43;;;;;;;34.95;23.73;;;7.20;62.20;;;;;;5033979;28;20066;-81
2022/03/25 02:18:14;;;;;;;36.78;24.00;;;7.20;62.30;;;;;;5038010;28;20387;-81
2022/03/25 02:20:42;;;;;;;36.92;24.63;;;7.20;62.30;;;;;;5037334;28;20095;-80
2022/03/25 02:23:10;;;;;;;34.40;22.98;;;7.20;62.40;;;;;;5036998;28;20469;-81
2022/03/25 02:25:38;;;;;;;33.15;23.00;;;7.10;62.50;;;;;;5036099;28;20045;-81
2022/03/25 02:28:05;;;;;;;36.00;24.38;;;7.10;62.60;;;;;;5033960;28;20501;-81
2022/03/25 02:30:35;;;;;;;36.17;24.13;;;7.00;62.60;;;;;;5034337;28;20064;-81
2022/03/25 02:33:04;;;;;;;36.45;24.75;;;7.00;62.70;;;;;;5038785;28;20446;-81
2022/03/25 02:35:42;;;;;;;41.13;25.60;;;7.00;62.80;;;;;;5036934;28;20050;-81
2022/03/25 02:38:14;;;;;;;40.53;26.00;;;7.00;62.80;;;;;;5036968;28;20049;-81
2022/03/25 02:40:42;;;;;;;41.25;26.23;;;6.90;62.90;;;;;;5035563;28;20115;-81
2022/03/25 02:43:11;;;;;;;41.63;27.30;;;6.90;63.00;;;;;;5034371;28;20070;-81
2022/03/25 02:45:39;;;;;;;40.15;25.95;;;6.90;63.00;;;;;;5033454;28;20058;-80
2022/03/25 02:48:07;;;;;;;45.47;27.60;;;6.90;63.10;;;;;;5038303;28;20041;-80
2022/03/25 02:50:34;;;;;;;39.75;26.42;;;6.90;63.20;;;;;;5036636;28;20049;-80
2022/03/25 02:53:02;;;;;;;40.38;25.67;;;6.80;63.30;;;;;;5035342;28;20103;-80
2022/03/25 02:55:30;;;;;;;42.15;26.73;;;6.80;63.30;;;;;;5036620;28;20476;-80
2022/03/25 02:57:57;;;;;;;39.13;24.83;;;6.80;63.40;;;;;;5033391;28;20103;-80
2022/03/25 03:00:27;;;;;;;38.15;26.05;;;6.80;63.40;;;;;;5036331;28;20107;-80
2022/03/25 03:02:55;;;;;;;37.47;26.65;;;6.70;63.50;;;;;;5037541;28;20056;-80
2022/03/25 03:05:22;;;;;;;40.40;27.38;;;6.70;63.60;;;;;;5036285;28;20494;-80
2022/03/25 03:07:49;;;;;;;42.50;28.65;;;6.70;63.70;;;;;;5036272;28;20045;-81
2022/03/25 03:10:17;;;;;;;43.45;27.70;;;6.70;63.70;;;;;;5035895;28;20114;-80
2022/03/25 03:12:44;;;;;;;40.67;27.02;;;6.70;63.80;;;;;;5031934;28;20049;-80
2022/03/25 03:15:13;;;;;;;45.15;27.88;;;6.60;63.80;;;;;;5038273;28;20050;-80
2022/03/25 03:17:40;;;;;;;43.20;28.67;;;6.60;63.90;;;;;;5035771;28;20099;-80
2022/03/25 03:20:09;;;;;;;43.33;29.20;;;6.60;64.00;;;;;;5033592;28;20465;-80
2022/03/25 03:22:35;;;;;;;46.65;30.00;;;6.50;64.00;;;;;;5035802;28;20452;-80
2022/03/25 03:25:03;;;;;;;43.90;30.25;;;6.50;64.10;;;;;;5033655;28;20449;-80
2022/03/25 03:27:30;;;;;;;48.58;29.08;;;6.50;64.20;;;;;;5034230;28;20054;-81
2022/03/25 03:29:58;;;;;;;43.22;28.40;;;6.50;64.30;;;;;;5037182;28;20053;-81
2022/03/25 03:32:26;;;;;;;48.45;28.13;;;6.50;64.30;;;;;;5034614;28;20460;-80
2022/03/25 03:34:54;;;;;;;45.80;29.50;;;6.50;64.40;;;;;;5035796;28;20041;-80
2022/03/25 03:37:21;;;;;;;47.38;30.33;;;6.40;64.50;;;;;;5036002;28;20404;-82
2022/03/25 03:39:49;;;;;;;47.67;30.08;;;6.40;64.50;;;;;;5031521;28;20510;-80
2022/03/25 03:42:16;;;;;;;46.40;30.33;;;6.40;64.60;;;;;;5037490;28;20122;-81
2022/03/25 03:44:43;;;;;;;47.83;31.17;;;6.40;64.70;;;;;;5033018;28;20510;-80
2022/03/25 03:47:11;;;;;;;45.45;30.10;;;6.40;64.70;;;;;;5034406;28;20057;-80
2022/03/25 03:49:39;;;;;;;48.33;32.15;;;6.30;64.80;;;;;;5034431;28;20489;-80
2022/03/25 03:52:06;;;;;;;44.92;31.10;;;6.30;64.90;;;;;;5032392;28;20115;-80
2022/03/25 03:54:33;;;;;;;46.78;31.23;;;6.30;64.90;;;;;;5032808;28;20057;-80
2022/03/25 03:57:00;;;;;;;47.53;31.52;;;6.20;65.00;;;;;;5037431;28;20053;-80
2022/03/25 03:59:27;;;;;;;46.58;31.15;;;6.20;65.00;;;;;;5033667;28;20521;-80
2022/03/25 04:01:54;;;;;;;44.20;30.63;;;6.20;65.10;;;;;;5035131;28;20053;-80
2022/03/25 04:04:21;;;;;;;48.00;31.13;;;6.20;65.10;;;;;;5035335;28;20098;-80
2022/03/25 04:06:48;;;;;;;44.13;31.70;;;6.10;65.20;;;;;;5031045;28;20054;-82
2022/03/25 04:09:15;;;;;;;46.22;30.73;;;6.10;65.20;;;;;;5037108;28;20045;-82
2022/03/25 04:11:42;;;;;;;43.47;30.52;;;6.10;65.30;;;;;;5034859;28;20468;-82
2022/03/25 04:14:09;;;;;;;46.65;31.13;;;6.00;65.30;;;;;;5034765;28;20494;-81
2022/03/25 04:16:37;;;;;;;45.15;29.92;;;6.00;65.30;;;;;;5034978;28;20519;-81
2022/03/25 04:19:05;;;;;;;50.70;31.95;;;6.00;65.40;;;;;;5032900;28;20076;-81
2022/03/25 04:21:32;;;;;;;48.55;29.83;;;6.00;65.50;;;;;;5031551;28;20046;-81
2022/03/25 04:23:59;;;;;;;46.90;30.27;;;5.90;65.50;;;;;;5034958;28;20435;-81
2022/03/25 04:26:26;;;;;;;44.80;30.88;;;5.90;65.50;;;;;;5034959;28;20045;-81
2022/03/25 04:28:53;;;;;;;46.80;31.73;;;5.90;65.60;;;;;;5034555;28;20049;-81
2022/03/25 04:31:20;;;;;;;49.53;30.73;;;5.90;65.60;;;;;;5034742;28;20564;-81
2022/03/25 04:33:47;;;;;;;45.13;30.52;;;5.90;65.70;;;;;;5013922;28;20088;-81
2022/03/25 04:36:14;;;;;;;46.05;31.42;;;5.80;65.70;;;;;;5042427;28;20049;-81
2022/03/25 04:38:42;;;;;;;50.63;32.00;;;5.80;65.70;;;;;;5033705;28;20391;-81
2022/03/25 04:41:12;;;;;;;45.35;30.95;;;5.80;65.80;;;;;;5034187;28;20107;-81
2022/03/25 04:43:39;;;;;;;46.42;30.38;;;5.70;65.80;;;;;;5034553;28;20049;-81
2022/03/25 04:46:08;;;;;;;43.92;30.92;;;5.70;65.80;;;;;;5031712;28;20053;-80
2022/03/25 04:48:36;;;;;;;49.17;31.67;;;5.70;65.80;;;;;;5031738;28;20119;-80
2022/03/25 04:51:03;;;;;;;46.38;31.40;;;5.70;65.90;;;;;;5068986;28;20056;-81
2022/03/25 04:53:32;;;;;;;45.08;30.52;;;5.70;65.90;;;;;;5034479;28;20510;-80
2022/03/25 04:58:33;;;;;;;50.70;32.08;;;5.60;66.00;;;;;;4470800;22;20093;-88
2022/03/25 05:01:00;;;;;;;50.47;32.38;;;5.60;66.00;;;;;;5032353;28;20049;-89
2022/03/25 05:03:28;;;;;;;49.53;32.45;;;5.60;66.10;;;;;;5033001;28;20053;-89
2022/03/25 05:05:55;;;;;;;50.47;31.55;;;5.60;66.10;;;;;;5033008;28;20045;-89
2022/03/25 05:08:22;;;;;;;48.65;32.85;;;5.50;66.20;;;;;;5033080;28;20100;-89
2022/03/25 05:10:49;;;;;;;50.55;34.20;;;5.50;66.20;;;;;;5033006;28;20464;-89
2022/03/25 05:13:27;;;;;;;49.13;32.45;;;5.50;66.30;;;;;;5032702;28;20083;-90
2022/03/25 05:15:54;;;;;;;47.08;32.03;;;5.50;66.30;;;;;;5032191;28;20132;-91
2022/03/25 05:18:23;;;;;;;56.17;34.25;;;5.50;66.30;;;;;;5032858;28;20524;-88
2022/03/25 05:20:50;;;;;;;50.70;34.65;;;5.40;66.40;;;;;;5032863;28;20120;-89
2022/03/25 05:23:17;;;;;;;46.42;33.30;;;5.40;66.40;;;;;;5032787;28;20049;-90
2022/03/25 05:25:44;;;;;;;47.42;32.70;;;5.40;66.50;;;;;;5032910;28;20548;-89
2022/03/25 05:28:11;;;;;;;51.88;34.80;;;5.40;66.50;;;;;;5031851;28;20049;-89
2022/03/25 05:30:39;;;;;;;54.45;34.88;;;5.40;66.50;;;;;;5015397;28;20103;-89
2022/03/25 05:33:06;;;;;;;50.20;34.50;;;5.40;66.60;;;;;;5032793;28;20041;-89
2022/03/25 05:35:33;;;;;;;53.00;35.15;;;5.40;66.60;;;;;;5038714;28;20468;-90
2022/03/25 05:38:01;;;;;;;54.40;36.42;;;5.30;66.60;;;;;;5032554;28;20517;-90
2022/03/25 05:40:28;;;;;;;51.97;36.50;;;5.30;66.60;;;;;;5031575;28;20053;-90
2022/03/25 05:42:55;;;;;;;54.90;36.22;;;5.30;66.70;;;;;;5031823;28;20559;-90
2022/03/25 05:45:23;;;;;;;51.67;34.65;;;5.30;66.80;;;;;;5032832;28;20100;-90
2022/03/25 05:47:50;;;;;;;57.40;36.47;;;5.20;66.80;;;;;;5032682;28;20127;-90
2022/03/25 05:50:18;;;;;;;57.40;37.70;;;5.20;66.90;;;;;;5034083;28;20064;-90
2022/03/25 05:52:46;;;;;;;57.42;37.00;;;5.20;66.90;;;;;;5032359;28;20501;-90
2022/03/25 05:55:14;;;;;;;50.47;34.97;;;5.20;67.00;;;;;;5035249;28;20049;-90
2022/03/25 05:57:41;;;;;;;57.20;38.42;;;5.20;67.00;;;;;;5036318;28;20421;-90
2022/03/25 06:00:09;;;;;;;54.97;36.13;;;5.20;67.10;;;;;;5037094;28;20049;-89
2022/03/25 06:02:36;;;;;;;52.28;36.67;;;5.10;67.10;;;;;;5038402;28;20045;-91
2022/03/25 06:05:04;;;;;;;53.72;37.38;;;5.10;67.20;;;;;;5018803;28;20505;-89
2022/03/25 06:07:44;;;;;;;63.00;40.63;;;5.10;67.20;;;;;;5036093;28;20092;-91
2022/03/25 06:10:13;;;;;;;56.40;38.78;;;5.10;67.30;;;;;;5054624;28;20095;-89
2022/03/25 06:12:41;;;;;;;61.30;39.08;;;5.10;67.30;;;;;;5035920;28;20413;-90
2022/03/25 06:15:08;;;;;;;61.42;39.25;;;5.10;67.40;;;;;;5036130;28;20041;-89
2022/03/25 06:17:48;;;;;;;65.03;42.25;;;5.10;67.40;;;;;;5035823;28;20103;-90
2022/03/25 06:20:23;;;;;;;61.30;39.30;;;5.10;67.50;;;;;;5037038;28;20049;-89
2022/03/25 06:22:50;;;;;;;;;;;5.00;67.50;;;;;;5036230;28;20049;-89
2022/03/25 06:25:18;;;;;;;60.08;40.85;;;5.00;67.60;;;;;;5035142;28;19925;-89
2022/03/25 06:27:50;;;;;;;57.35;39.33;;;5.00;67.70;;;;;;5035294;28;20049;-90
2022/03/25 06:30:18;;;;;;;58.13;40.75;;;5.00;67.70;;;;;;5037399;28;20057;-90
2022/03/25 06:32:45;;;;;;;59.03;39.75;;;5.00;67.80;;;;;;5035414;28;20099;-90
2022/03/25 06:35:13;;;;;;;60.13;40.17;;;5.00;67.90;;;;;;5035573;28;20070;-90
2022/03/25 06:37:41;;;;;;;61.17;40.97;;;5.00;68.00;;;;;;5021142;28;20060;-90
2022/03/25 06:40:09;;;;;;;61.80;40.28;;;5.00;68.10;;;;;;5034660;28;20497;-89
2022/03/25 06:42:37;;;;;;;57.97;40.80;;;5.00;68.10;;;;;;5034844;28;20108;-90
2022/03/25 06:45:06;;;;;;;60.22;41.58;;;5.00;68.20;;;;;;5042139;28;20461;-89
2022/03/25 06:47:33;;;;;;;61.47;40.28;;;5.00;68.20;;;;;;5035326;28;20057;-88
2022/03/25 06:50:04;;;;;;;59.85;39.92;;;5.00;68.30;;;;;;5035209;28;20037;-88
2022/03/25 06:52:31;;;;;;;65.20;41.70;;;5.00;68.40;;;;;;5035847;28;20510;-89
2022/03/25 06:54:59;;;;;;;58.55;41.28;;;5.10;68.40;;;;;;5035099;28;20053;-90
2022/03/25 06:57:26;;;;;;;60.85;41.63;;;5.00;68.50;;;;;;5034185;28;20054;-91
2022/03/25 06:59:53;;;;;;;63.00;42.30;;;5.10;68.50;;;;;;5017729;28;20119;-91
2022/03/25 07:02:20;;;;;;;63.70;41.38;;;5.10;68.60;;;;;;5035335;28;20053;-90
2022/03/25 07:04:47;;;;;;;61.80;38.90;;;5.20;68.70;;;;;;5033982;28;20103;-90
2022/03/25 07:07:19;;;;;;;57.58;40.03;;;5.20;68.70;;;;;;5034663;28;20111;-91
2022/03/25 07:09:46;;;;;;;62.33;41.47;;;5.20;68.80;;;;;;5014916;28;20474;-91
2022/03/25 07:12:15;;;;;;;60.08;40.50;;;5.30;68.80;;;;;;5032495;28;20464;-91
2022/03/25 07:14:42;;;;;;;63.70;41.28;;;5.30;68.90;;;;;;5036404;28;20087;-90
2022/03/25 07:17:08;;;;;;;64.68;41.85;;;5.30;69.00;;;;;;5036254;28;20049;-91
2022/03/25 07:19:35;;;;;;;61.20;42.05;;;5.40;69.00;;;;;;5037141;28;20053;-90
2022/03/25 07:22:03;;;;;;;56.88;40.45;;;5.40;69.10;;;;;;5034821;28;20391;-89
2022/03/25 07:24:30;;;;;;;59.45;41.75;;;5.40;69.10;;;;;;5034313;28;20100;-91
2022/03/25 07:26:57;;;;;;;65.95;42.47;;;5.40;69.20;;;;;;5034216;28;20053;-90
2022/03/25 07:29:24;;;;;;;65.63;42.90;;;5.50;69.30;;;;;;5034847;28;20058;-91
2022/03/25 07:31:51;;;;;;;64.35;43.47;;;5.50;69.40;;;;;;5036370;28;20103;-91
2022/03/25 07:34:18;;;;;;;61.03;42.05;;;5.60;69.40;;;;;;5033079;28;20387;-92
2022/03/25 07:36:45;;;;;;;76.25;47.67;;;5.60;69.60;;;;;;5029931;28;20041;-92
2022/03/25 07:39:12;;;;;;;77.25;45.90;;;5.70;69.70;;;;;;5036238;28;20101;-89
2022/03/25 07:41:39;;;;;;;74.88;48.17;;;5.80;69.90;;;;;;5035505;28;20045;-89
2022/03/25 07:44:06;;;;;;;77.85;47.17;;;5.80;70.10;;;;;;5043408;28;20049;-90
2022/03/25 07:46:33;;;;;;;77.13;45.70;;;5.90;70.30;;;;;;5035973;28;20099;-91
2022/03/25 07:49:00;;;;;;;70.53;45.92;;;5.90;70.40;;;;;;5034496;28;20136;-91
2022/03/25 07:51:27;;;;;;;73.78;47.65;;;6.00;70.40;;;;;;5040938;28;20057;-91
2022/03/25 07:53:54;;;;;;;75.65;48.38;;;6.10;70.40;;;;;;5041524;28;20107;-90
2022/03/25 07:56:21;;;;;;;72.68;47.25;;;6.20;70.40;;;;;;5042730;28;20095;-90
2022/03/25 07:58:48;;;;;;;82.13;50.00;;;6.20;70.40;;;;;;5048314;28;20565;-91
2022/03/25 08:01:15;;;;;;;88.82;54.75;;;6.30;70.50;;;;;;5033916;28;20045;-91
2022/03/25 08:03:42;;;;;;;82.13;53.13;;;6.40;70.60;;;;;;5033760;28;20053;-92
2022/03/25 08:06:13;;;;;;;86.80;51.85;;;6.50;70.70;;;;;;5017449;28;20050;-92
2022/03/25 08:08:40;;;;;;;80.75;51.40;;;6.60;70.70;;;;;;5014172;28;20058;-89
2022/03/25 08:11:08;;;;;;;79.38;52.95;;;6.70;70.70;;;;;;5017387;28;20460;-92
2022/03/25 08:13:35;;;;;;;85.47;53.83;;;6.80;70.80;;;;;;5015979;28;20567;-93
2022/03/25 08:16:02;;;;;;;86.28;54.00;;;6.90;70.80;;;;;;5032867;28;20048;-91
2022/03/25 08:18:29;;;;;;;82.65;52.38;;;7.00;70.80;;;;;;5033513;28;20053;-92
2022/03/25 08:20:57;;;;;;;86.80;54.20;;;7.10;70.80;;;;;;5033303;28;20049;-91
2022/03/25 08:28:59;;;;;;;87.65;54.60;;;7.50;70.80;;;;;;5053744;28;20118;-92
2022/03/25 08:31:44;;;;;;;93.95;56.08;;;7.60;70.80;;;;;;5038329;28;20057;-91
2022/03/25 08:34:14;;;;;;;94.72;56.15;;;7.80;70.80;;;;;;5037215;28;20060;-93
2022/03/25 08:36:43;;;;;;;96.03;58.67;;;7.90;70.80;;;;;;5032769;28;20107;-92
2022/03/25 08:39:11;;;;;;;95.88;57.58;;;8.00;70.70;;;;;;5033153;28;20107;-91
2022/03/25 08:41:38;;;;;;;85.85;54.35;;;8.10;70.70;;;;;;5044834;28;20049;-91
2022/03/25 08:44:06;;;;;;;89.22;56.90;;;8.20;70.70;;;;;;5046421;28;20119;-92
2022/03/25 08:46:34;;;;;;;92.65;56.20;;;8.40;70.60;;;;;;5033211;28;20511;-92
2022/03/25 08:49:06;;;;;;;88.68;56.17;;;8.40;70.50;;;;;;5032861;28;20053;-92
2022/03/25 08:51:33;;;;;;;90.47;56.72;;;8.60;70.40;;;;;;5052048;28;20041;-91
2022/03/25 08:54:00;;;;;;;86.55;54.17;;;8.70;70.30;;;;;;5032953;28;20049;-92
2022/03/25 08:56:30;;;;;;;91.85;55.53;;;8.90;70.20;;;;;;5043060;28;20417;-91
2022/03/25 08:58:58;;;;;;;97.53;57.42;;;9.00;70.10;;;;;;5038496;28;20053;-91
2022/03/25 09:01:26;;;;;;;93.25;57.08;;;9.10;70.00;;;;;;5033473;28;20607;-91
2022/03/25 09:03:54;;;;;;;87.60;56.05;;;9.20;69.80;;;;;;5033012;28;20045;-90
2022/03/25 09:06:21;;;;;;;84.57;55.78;;;9.40;69.70;;;;;;5015967;28;20053;-92
2022/03/25 09:08:48;;;;;;;84.72;54.88;;;9.50;69.50;;;;;;5033127;28;20444;-92
2022/03/25 09:11:15;;;;;;;94.93;55.40;;;9.60;69.40;;;;;;5033658;28;20045;-91
2022/03/25 09:13:42;;;;;;;86.63;55.40;;;9.70;69.20;;;;;;5015179;28;20103;-92
2022/03/25 09:16:11;;;;;;;81.85;54.05;;;9.90;69.00;;;;;;5015952;28;20049;-93
2022/03/25 09:18:38;;;;;;;85.85;54.63;;;9.90;68.80;;;;;;4995580;28;20050;-92
2022/03/25 09:21:05;;;;;;;85.22;54.58;;;10.10;68.70;;;;;;5043045;28;20049;-93
2022/03/25 09:23:32;;;;;;;84.25;54.75;;;10.30;68.50;;;;;;5041254;28;20053;-92
2022/03/25 09:26:00;;;;;;;87.30;53.88;;;10.40;68.30;;;;;;5032576;28;20096;-92
2022/03/25 09:28:28;;;;;;;85.15;55.47;;;10.50;68.10;;;;;;5034812;28;20068;-91
2022/03/25 09:30:55;;;;;;;86.72;55.08;;;10.60;67.90;;;;;;5036387;28;20075;-90
2022/03/25 09:33:22;;;;;;;92.78;57.65;;;10.80;67.80;;;;;;5036255;28;20045;-90
2022/03/25 09:35:49;;;;;;;90.10;55.22;;;10.90;67.60;;;;;;5036771;28;20046;-89
2022/03/25 09:38:16;;;;;;;83.35;56.05;;;11.00;67.40;;;;;;5036512;28;20533;-90
2022/03/25 09:40:46;;;;;;;79.35;53.88;;;11.10;67.20;;;;;;5038580;28;20045;-89
2022/03/25 09:43:13;;;;;;;86.65;54.17;;;11.30;67.00;;;;;;5039066;28;20057;-92
2022/03/25 09:45:40;;;;;;;82.50;54.33;;;11.40;66.80;;;;;;5038041;28;20416;-89
2022/03/25 09:48:07;;;;;;;74.97;52.75;;;11.50;66.50;;;;;;5037308;28;20052;-89
2022/03/25 09:50:39;;;;;;;85.35;54.15;;;11.70;66.30;;;;;;5036056;28;20398;-88
2022/03/25 09:53:30;;;;;;;75.82;53.72;;;11.80;65.90;;;;;;5021254;28;20077;-89
2022/03/25 09:55:58;;;;;;;74.50;50.50;;;11.90;65.50;;;;;;5018876;28;20116;-89
2022/03/25 09:58:28;;;;;;;77.30;50.35;;;12.10;65.20;;;;;;5035960;28;20593;-89
2022/03/25 10:00:55;;;;;;;69.60;48.90;;;12.20;64.90;;;;;;5035312;28;20041;-89
2022/03/25 10:03:40;;;;;;;78.75;51.47;;;12.40;64.60;;;;;;5035577;28;20111;-89
2022/03/25 10:06:11;;;;;;;87.45;49.33;;;12.50;64.30;;;;;;5035692;28;20053;-88
2022/03/25 10:08:45;;;;;;;76.20;48.80;;;12.60;64.10;;;;;;5035786;28;20516;-90
2022/03/25 10:11:23;;;;;;;74.90;49.63;;;12.80;63.80;;;;;;5018456;28;20099;-89
2022/03/25 10:14:15;;;;;;;71.45;47.53;;;12.90;63.50;;;;;;5021572;28;20049;-90
2022/03/25 10:16:45;;;;;;;72.63;48.25;;;13.10;63.10;;;;;;5020038;28;20120;-89
2022/03/25 10:19:33;;;;;;;83.50;49.20;;;13.20;62.90;;;;;;5036121;28;20041;-90
2022/03/25 10:22:02;;;;;;;73.95;46.80;;;13.40;62.60;;;;;;5034865;28;20049;-89
2022/03/25 10:24:54;;;;;;;75.85;46.83;;;13.50;62.30;;;;;;5032773;28;20053;-89
2022/03/25 10:27:29;;;;;;;73.90;46.13;;;13.60;61.90;;;;;;5035218;28;20054;-90
2022/03/25 10:29:57;;;;;;;70.75;46.65;;;13.70;61.70;;;;;;5047811;28;20508;-90
2022/03/25 10:32:25;;;;;;;75.00;45.83;;;13.80;61.40;;;;;;5019550;28;20416;-89
2022/03/25 10:35:09;;;;;;;69.15;42.90;;;13.90;61.10;;;;;;5035143;28;20509;-88
2022/03/25 10:37:38;;;;;;;64.18;42.55;;;14.10;60.80;;;;;;5035307;28;20056;-89
2022/03/25 10:40:06;;;;;;;67.15;43.13;;;14.20;60.50;;;;;;5033481;28;20132;-89
2022/03/25 10:42:34;;;;;;;64.32;42.05;;;14.30;60.20;;;;;;5036331;28;20045;-89
2022/03/25 10:45:24;;;;;;;64.70;41.30;;;14.40;60.00;;;;;;5034592;28;20049;-89
2022/03/25 10:48:14;;;;;;;67.32;41.78;;;14.50;59.60;;;;;;5034470;28;20046;-89
2022/03/25 10:51:00;;;;;;;61.95;40.42;;;14.60;59.40;;;;;;5034609;28;20536;-89
2022/03/25 10:53:28;;;;;;;60.95;41.22;;;14.70;59.10;;;;;;5034762;28;20107;-89
2022/03/25 10:56:07;;;;;;;58.60;37.58;;;14.80;59.00;;;;;;5034775;28;20505;-89
2022/03/25 10:58:35;;;;;;;57.40;37.80;;;14.90;58.80;;;;;;5034541;28;20072;-89
2022/03/25 11:01:03;;;;;;;61.95;38.67;;;14.90;58.60;;;;;;5033606;28;20048;-89
2022/03/25 11:03:31;;;;;;;55.67;38.55;;;15.00;58.40;;;;;;5034574;28;20053;-89
2022/03/25 11:05:58;;;;;;;57.70;38.45;;;15.10;58.20;;;;;;5016967;28;20049;-90
2022/03/25 11:08:25;;;;;;;54.15;36.35;;;15.20;57.90;;;;;;5034665;28;20045;-90
2022/03/25 11:10:53;;;;;;;55.22;36.60;;;15.30;57.70;;;;;;5034753;28;20104;-89
2022/03/25 11:13:22;;;;;;;53.35;36.15;;;15.30;57.60;;;;;;5016638;28;20062;-89
2022/03/25 11:15:53;;;;;;;53.78;35.97;;;15.40;57.40;;;;;;5033394;28;20053;-89
2022/03/25 11:18:21;;;;;;;60.38;37.67;;;15.50;57.30;;;;;;5034511;28;20099;-89
2022/03/25 11:20:51;;;;;;;54.63;36.53;;;15.50;57.10;;;;;;5034620;28;20053;-89
2022/03/25 11:23:25;;;;;;;54.90;35.38;;;15.60;57.00;;;;;;5049919;28;20049;-89
2022/03/25 11:25:55;;;;;;;54.13;35.30;;;15.60;56.80;;;;;;5034738;28;20046;-89
2022/03/25 11:28:33;;;;;;;56.50;35.75;;;15.70;56.70;;;;;;5033961;28;20054;-89
2022/03/25 11:31:02;;;;;;;56.58;34.47;;;15.80;56.50;;;;;;5032687;28;20581;-88
2022/03/25 11:33:30;;;;;;;55.70;33.05;;;15.90;56.30;;;;;;5018321;28;20132;-89
2022/03/25 11:36:14;;;;;;;50.95;32.58;;;15.90;56.10;;;;;;5035666;28;20064;-90
2022/03/25 11:38:43;;;;;;;48.28;32.72;;;16.00;55.90;;;;;;5034291;28;20049;-88
2022/03/25 11:41:27;;;;;;;47.13;29.23;;;16.00;55.80;;;;;;5033815;28;20080;-89
2022/03/25 11:44:15;;;;;;;49.13;28.30;;;16.10;55.50;;;;;;5026512;28;20049;-90
2022/03/25 11:47:00;;;;;;;41.80;26.08;;;16.20;55.20;;;;;;5018410;28;20045;-88
2022/03/25 11:49:33;;;;;;;46.70;27.92;;;16.20;54.90;;;;;;5033796;28;20137;-88
2022/03/25 11:52:26;;;;;;;42.25;25.17;;;16.30;54.60;;;;;;5031850;28;20049;-89
2022/03/25 11:54:59;;;;;;;39.03;21.98;;;16.30;54.20;;;;;;5031108;28;20045;-88
2022/03/25 11:57:29;;;;;;;38.97;20.15;;;16.40;53.70;;;;;;5033151;28;20057;-88
2022/03/25 12:00:02;;;;;;;34.45;19.50;;;16.40;53.40;;;;;;5017992;28;20064;-89
2022/03/25 12:02:31;;;;;;;30.40;17.52;;;16.40;53.00;;;;;;5033587;28;20053;-88
2022/03/25 12:05:03;;;;;;;22.77;15.43;;;16.40;52.50;;;;;;5033340;28;20619;-88
2022/03/25 12:07:30;;;;;;;25.70;15.27;;;16.50;52.10;;;;;;5033471;28;20148;-90
2022/03/25 12:09:58;;;;;;;28.08;14.18;;;16.60;51.80;;;;;;5032615;28;20591;-88
2022/03/25 12:12:55;;;;;;;25.80;12.75;;;16.50;51.40;;;;;;5032786;28;20045;-89
2022/03/25 12:15:43;;;;;;;25.90;12.63;;;16.60;51.10;;;;;;5015615;28;20140;-90
2022/03/25 12:18:39;;;;;;;19.42;11.77;;;16.70;50.70;;;;;;5033199;28;20041;-89
2022/03/25 12:21:24;;;;;;;20.88;10.55;;;16.70;50.50;;;;;;5033127;28;20041;-90
2022/03/25 12:23:58;;;;;;;19.02;9.95;;;16.80;50.10;;;;;;5035441;28;20050;-86
2022/03/25 12:26:32;;;;;;;22.42;9.52;;;16.80;49.70;;;;;;5015525;28;20515;-89
2022/03/25 12:28:59;;;;;;;20.45;9.00;;;16.90;49.40;;;;;;5016918;28;20041;-89
2022/03/25 12:31:28;;;;;;;17.77;8.52;;;16.90;49.20;;;;;;5033214;28;20057;-89
2022/03/25 12:33:57;;;;;;;18.73;7.85;;;16.90;48.90;;;;;;5033469;28;20054;-88
2022/03/25 12:36:40;;;;;;;14.00;7.68;;;17.00;48.60;;;;;;5032993;28;20057;-89
2022/03/25 12:39:16;;;;;;;16.15;7.45;;;17.10;48.40;;;;;;5032509;28;20460;-89
2022/03/25 12:41:48;;;;;;;12.88;6.63;;;17.20;48.10;;;;;;5032558;28;20103;-90
2022/03/25 12:44:31;;;;;;;13.63;6.60;;;17.20;47.90;;;;;;5034482;28;20049;-89
2022/03/25 12:47:00;;;;;;;13.10;5.53;;;17.30;47.60;;;;;;5032774;28;20100;-88
2022/03/25 12:49:28;;;;;;;16.02;6.07;;;17.30;47.50;;;;;;5032823;28;20056;-89
2022/03/25 12:52:03;;;;;;;16.60;5.30;;;17.40;47.20;;;;;;5031943;28;20049;-88
2022/03/25 12:54:31;;;;;;;16.95;5.88;;;17.40;46.80;;;;;;5033993;28;20060;-88